createdAt,value
2022-07-29T00:02:35.584Z,19.69
2022-07-29T00:07:38.365Z,19.61
2022-07-29T00:12:41.318Z,19.45
2022-07-29T00:17:43.924Z,19.36
2022-07-29T00:22:47.532Z,19.92
2022-07-29T00:27:50.599Z,19.45
2022-07-29T00:32:53.747Z,19.76
2022-07-29T00:37:56.488Z,19.88
2022-07-29T00:42:59.486Z,20.05
2022-07-29T00:48:02.671Z,19.87
2022-07-29T00:53:08.033Z,19.72
2022-07-29T00:58:10.974Z,20.15
2022-07-29T01:03:14.135Z,21.20
2022-07-29T01:08:17.729Z,20.30
2022-07-29T01:13:21.142Z,20.10
2022-07-29T01:18:38.449Z,19.96
2022-07-29T01:23:54.477Z,19.70
2022-07-29T01:29:05.314Z,19.72
2022-07-29T01:34:13.491Z,19.73
2022-07-29T01:39:20.574Z,19.82
2022-07-29T01:44:34.210Z,19.52
2022-07-29T01:49:38.729Z,19.52
2022-07-29T01:54:47.600Z,19.35
2022-07-29T01:59:50.857Z,19.35
2022-07-29T02:04:54.093Z,19.44
2022-07-29T02:09:57.869Z,19.52
2022-07-29T02:15:02.863Z,19.76
2022-07-29T02:20:06.881Z,19.89
2022-07-29T02:25:13.854Z,20.08
2022-07-29T02:30:17.153Z,20.25
2022-07-29T02:35:20.555Z,20.16
2022-07-29T02:40:23.406Z,21.40
2022-07-29T02:45:26.520Z,21.98
2022-07-29T02:50:36.017Z,22.12
2022-07-29T02:55:44.152Z,22.29
2022-07-29T03:00:49.208Z,22.30
2022-07-29T03:05:54.447Z,22.23
2022-07-29T03:10:57.424Z,22.17
2022-07-29T03:16:00.941Z,22.28
2022-07-29T03:21:04.973Z,22.17
2022-07-29T03:26:07.691Z,22.26
2022-07-29T03:31:10.592Z,22.28
2022-07-29T03:36:13.404Z,22.23
2022-07-29T03:41:16.593Z,21.55
2022-07-29T03:46:25.889Z,21.19
2022-07-29T03:51:33.978Z,20.98
2022-07-29T03:56:40.006Z,21.07
2022-07-29T04:01:43.676Z,21.79
2022-07-29T04:06:48.342Z,22.23
2022-07-29T04:12:02.688Z,22.40
2022-07-29T04:17:06.715Z,22.52
2022-07-29T04:22:09.486Z,22.53
2022-07-29T04:27:12.228Z,22.74
2022-07-29T04:32:14.860Z,22.79
2022-07-29T04:37:17.353Z,22.79
2022-07-29T04:42:19.961Z,22.97
2022-07-29T04:47:30.412Z,22.98
2022-07-29T04:52:33.203Z,23.12
2022-07-29T04:57:36.010Z,23.21
2022-07-29T05:02:38.605Z,23.27
2022-07-29T05:07:41.219Z,23.32
2022-07-29T05:12:43.830Z,23.39
2022-07-29T05:17:46.456Z,23.44
2022-07-29T05:22:49.197Z,23.48
2022-07-29T05:27:51.914Z,23.67
2022-07-29T05:32:54.598Z,23.76
2022-07-29T05:37:57.087Z,23.71
2022-07-29T05:42:59.889Z,23.70
2022-07-29T05:48:02.705Z,23.83
2022-07-29T05:53:19.617Z,23.93
2022-07-29T05:58:22.696Z,23.92
2022-07-29T06:03:25.274Z,24.16
2022-07-29T06:08:27.958Z,24.48
2022-07-29T06:13:31.639Z,24.90
2022-07-29T06:18:34.404Z,25.19
2022-07-29T06:23:38.355Z,25.49
2022-07-29T06:28:40.918Z,25.80
2022-07-29T06:33:44.135Z,26.00
2022-07-29T06:38:50.437Z,25.97
2022-07-29T06:43:56.791Z,25.84
2022-07-29T06:48:59.624Z,26.50
2022-07-29T06:54:03.667Z,27.24
2022-07-29T06:59:07.440Z,27.71
2022-07-29T07:04:15.983Z,27.82
2022-07-29T07:09:20.227Z,28.03
2022-07-29T07:14:23.342Z,28.37
2022-07-29T07:19:26.377Z,28.37
2022-07-29T07:24:29.671Z,28.45
2022-07-29T07:29:32.893Z,28.94
2022-07-29T07:34:36.196Z,28.96
2022-07-29T07:39:39.533Z,29.42
2022-07-29T07:45:11.700Z,29.30
2022-07-29T07:50:06.981Z,29.84
2022-07-29T07:55:10.741Z,29.83
2022-07-29T08:00:18.638Z,30.30
2022-07-29T08:05:22.076Z,30.33
2022-07-29T08:10:44.352Z,30.44
2022-07-29T08:15:47.902Z,30.41
2022-07-29T08:20:50.856Z,30.44
2022-07-29T08:40:00.840Z,31.33
2022-07-29T08:45:05.939Z,31.50
2022-07-29T08:59:44.666Z,31.74
2022-07-29T09:24:05.734Z,30.90
2022-07-29T09:39:46.019Z,32.28
2022-07-29T11:32:18.182Z,33.69
2022-07-29T11:45:48.932Z,33.34
2022-07-29T11:56:10.144Z,33.18
2022-07-29T12:02:06.846Z,33.36
2022-07-29T12:13:17.354Z,32.94
2022-07-29T12:18:30.727Z,32.57
2022-07-29T12:34:03.651Z,32.63
2022-07-29T13:05:10.318Z,32.72
2022-07-29T13:10:24.648Z,32.93
2022-07-29T13:15:30.690Z,33.31
2022-07-29T13:20:34.861Z,32.75
2022-07-29T13:25:42.495Z,32.67
2022-07-29T13:30:47.153Z,32.42
2022-07-29T13:35:50.352Z,32.57
2022-07-29T13:40:54.129Z,32.71
2022-07-29T13:46:04.529Z,32.57
2022-07-29T13:51:09.711Z,32.47
2022-07-29T14:01:26.726Z,32.73
2022-07-29T14:22:24.622Z,32.84
2022-07-29T14:43:04.697Z,32.93
2022-07-29T14:48:17.872Z,33.03
2022-07-29T14:53:22.424Z,32.71
2022-07-29T14:58:25.661Z,32.68
2022-07-29T15:03:29.933Z,32.70
2022-07-29T15:13:44.128Z,32.74
2022-07-29T15:29:27.084Z,32.61
2022-07-29T15:34:31.138Z,32.31
2022-07-29T15:39:34.739Z,31.69
2022-07-29T15:49:47.762Z,31.78
2022-07-29T15:54:52.149Z,32.00
2022-07-29T15:59:55.823Z,31.94
2022-07-29T16:05:09.329Z,31.93
2022-07-29T16:10:12.973Z,31.99
2022-07-29T16:15:16.692Z,31.73
2022-07-29T16:20:19.841Z,30.84
2022-07-29T16:25:43.992Z,30.65
2022-07-29T16:30:48.779Z,30.41
2022-07-29T16:35:52.405Z,30.22
2022-07-29T16:40:55.745Z,30.28
2022-07-29T16:45:59.303Z,30.25
2022-07-29T16:51:02.761Z,30.23
2022-07-29T16:56:06.053Z,30.13
2022-07-29T17:01:12.170Z,29.81
2022-07-29T17:06:15.573Z,29.85
2022-07-29T17:11:18.922Z,29.54
2022-07-29T17:16:25.732Z,29.55
2022-07-29T17:21:29.204Z,29.44
2022-07-29T17:26:32.186Z,29.18
2022-07-29T17:31:35.522Z,29.28
2022-07-29T17:36:38.774Z,29.05
2022-07-29T17:41:42.081Z,29.23
2022-07-29T17:46:45.182Z,29.05
2022-07-29T17:51:49.705Z,28.29
2022-07-29T17:56:52.919Z,27.68
2022-07-29T18:01:55.888Z,27.50
2022-07-29T18:06:59.630Z,27.09
2022-07-29T18:12:02.888Z,27.16
2022-07-29T18:17:06.781Z,26.39
2022-07-29T18:22:12.179Z,25.82
2022-07-29T18:27:15.601Z,25.59
2022-07-29T18:32:19.518Z,25.66
2022-07-29T18:38:02.282Z,25.79
2022-07-29T18:42:55.826Z,25.81
2022-07-29T18:47:59.040Z,25.28
2022-07-29T18:53:04.134Z,24.43
2022-07-29T18:58:07.357Z,24.50
2022-07-29T19:03:10.915Z,24.58
2022-07-29T19:08:15.241Z,24.53
2022-07-29T19:13:18.325Z,24.51
2022-07-29T19:18:21.275Z,24.37
2022-07-29T19:23:24.501Z,23.97
2022-07-29T19:28:27.471Z,24.02
2022-07-29T19:33:30.996Z,23.69
2022-07-29T19:38:35.702Z,24.27
2022-07-29T19:43:50.790Z,24.11
2022-07-29T19:48:55.878Z,24.52
2022-07-29T19:53:58.941Z,23.92
2022-07-29T19:59:01.963Z,23.65
2022-07-29T20:04:05.122Z,23.73
2022-07-29T20:09:08.082Z,24.12
2022-07-29T20:14:20.567Z,24.51
2022-07-29T20:19:23.457Z,24.44
2022-07-29T20:24:26.477Z,24.14
2022-07-29T20:29:29.544Z,23.83
2022-07-29T20:34:33.610Z,23.56
2022-07-29T20:39:37.292Z,23.93
2022-07-29T20:44:40.632Z,23.86
2022-07-29T20:49:45.613Z,23.82
2022-07-29T20:54:48.712Z,24.19
